createdAt,value
2023-01-03T00:00:50.816Z,55.88
2023-01-03T00:03:17.478Z,57.40
2023-01-03T00:05:45.596Z,56.63
2023-01-03T00:08:12.526Z,50.92
2023-01-03T00:10:39.762Z,46.63
2023-01-03T00:13:06.336Z,48.88
2023-01-03T00:15:36.429Z,43.55
2023-01-03T00:18:03.606Z,40.88
2023-01-03T00:20:30.145Z,38.40
2023-01-03T00:22:59.898Z,37.33
2023-01-03T00:25:27.119Z,37.10
2023-01-03T00:27:54.242Z,36.28
2023-01-03T00:30:20.923Z,34.22
2023-01-03T00:32:47.543Z,32.83
2023-01-03T00:35:14.142Z,33.08
2023-01-03T00:37:40.717Z,32.10
2023-01-03T00:40:07.785Z,32.65
2023-01-03T00:42:54.320Z,33.78
2023-01-03T00:45:23.409Z,32.70
2023-01-03T00:47:52.063Z,34.63
2023-01-03T00:50:18.677Z,35.88
2023-01-03T00:52:45.242Z,34.90
2023-01-03T00:55:11.999Z,38.05
2023-01-03T00:57:38.546Z,37.92
2023-01-03T01:00:05.467Z,36.05
2023-01-03T01:02:32.126Z,39.45
2023-01-03T01:04:58.874Z,40.00
2023-01-03T01:07:25.458Z,40.05
2023-01-03T01:09:52.020Z,41.35
2023-01-03T01:12:18.573Z,43.55
2023-01-03T01:14:45.173Z,42.75
2023-01-03T01:17:11.736Z,44.20
2023-01-03T01:19:44.153Z,44.53
2023-01-03T01:22:11.695Z,47.17
2023-01-03T01:24:38.370Z,45.83
2023-01-03T01:27:05.399Z,43.53
2023-01-03T01:29:31.967Z,51.75
2023-01-03T01:31:58.528Z,52.72
2023-01-03T01:34:25.128Z,54.50
2023-01-03T01:36:51.667Z,49.58
2023-01-03T01:39:26.935Z,53.60
2023-01-03T01:42:20.397Z,56.63
2023-01-03T01:45:05.375Z,53.20
2023-01-03T01:47:38.471Z,48.30
2023-01-03T01:50:39.030Z,50.08
2023-01-03T01:53:14.858Z,62.53
2023-01-03T01:55:51.439Z,61.75
2023-01-03T01:58:18.284Z,58.15
2023-01-03T02:00:45.458Z,62.90
2023-01-03T02:03:12.763Z,62.67
2023-01-03T02:05:45.169Z,59.85
2023-01-03T02:08:11.796Z,67.43
2023-01-03T02:11:10.118Z,64.95
2023-01-03T02:14:09.636Z,63.22
2023-01-03T02:16:48.696Z,60.88
2023-01-03T02:19:48.806Z,63.35
2023-01-03T02:22:56.987Z,62.70
2023-01-03T02:25:23.504Z,66.55
2023-01-03T02:28:08.457Z,68.28
2023-01-03T02:30:49.190Z,62.42
2023-01-03T02:33:27.660Z,64.97
2023-01-03T02:36:00.204Z,70.22
2023-01-03T02:38:34.193Z,71.68
2023-01-03T02:41:11.229Z,72.35
2023-01-03T02:43:43.661Z,75.82
2023-01-03T02:46:25.661Z,70.47
2023-01-03T02:49:14.136Z,70.78
2023-01-03T02:51:53.403Z,70.65
2023-01-03T02:54:31.994Z,71.97
2023-01-03T02:57:07.159Z,71.35
2023-01-03T02:59:37.550Z,69.40
2023-01-03T03:02:05.946Z,73.25
2023-01-03T03:04:36.260Z,72.03
2023-01-03T03:07:13.232Z,71.80
2023-01-03T03:09:59.812Z,72.93
2023-01-03T03:12:48.088Z,71.18
2023-01-03T03:15:17.689Z,69.38
2023-01-03T03:17:47.159Z,67.35
2023-01-03T03:20:34.999Z,72.78
2023-01-03T03:23:30.956Z,73.32
2023-01-03T03:26:03.813Z,67.78
2023-01-03T03:28:37.650Z,72.28
2023-01-03T03:31:22.992Z,67.33
2023-01-03T03:34:19.680Z,61.22
2023-01-03T03:36:51.363Z,63.00
2023-01-03T03:39:37.510Z,69.63
2023-01-03T03:43:00.292Z,74.97
2023-01-03T03:45:37.706Z,65.68
2023-01-03T03:48:30.093Z,69.13
2023-01-03T03:51:12.697Z,73.60
2023-01-03T03:53:41.520Z,72.70
2023-01-03T03:56:15.392Z,75.63
2023-01-03T03:58:46.177Z,73.27
2023-01-03T04:01:17.413Z,75.72
2023-01-03T04:03:46.229Z,75.13
2023-01-03T04:06:42.073Z,78.50
2023-01-03T04:09:08.902Z,75.43
2023-01-03T04:11:35.815Z,75.43
2023-01-03T04:14:02.376Z,77.15
2023-01-03T04:16:28.982Z,80.22
2023-01-03T04:18:55.657Z,74.15
2023-01-03T04:21:22.200Z,78.20
2023-01-03T04:23:48.798Z,77.75
2023-01-03T04:26:15.678Z,69.45
2023-01-03T04:28:42.294Z,75.45
2023-01-03T04:31:09.131Z,71.95
2023-01-03T04:33:35.759Z,75.05
2023-01-03T04:36:02.309Z,71.63
2023-01-03T04:38:28.903Z,74.80
2023-01-03T04:40:55.469Z,76.57
2023-01-03T04:43:40.708Z,76.45
2023-01-03T04:46:07.344Z,79.15
2023-01-03T04:48:34.011Z,72.82
2023-01-03T04:51:01.359Z,79.13
2023-01-03T04:53:28.184Z,75.85
2023-01-03T04:55:58.531Z,73.95
2023-01-03T04:58:25.516Z,73.00
2023-01-03T05:00:52.166Z,73.20
2023-01-03T05:03:24.031Z,73.60
2023-01-03T05:05:58.621Z,75.00
2023-01-03T05:08:25.187Z,72.78
2023-01-03T05:10:53.764Z,73.22
2023-01-03T05:13:20.434Z,72.10
2023-01-03T05:15:47.080Z,75.55
2023-01-03T05:18:13.702Z,75.18
2023-01-03T05:20:58.765Z,73.13
2023-01-03T05:26:13.756Z,67.03
2023-01-03T05:28:43.475Z,69.93
2023-01-03T05:31:10.191Z,71.35
2023-01-03T05:33:40.903Z,69.32
2023-01-03T05:36:09.018Z,70.13
2023-01-03T05:38:35.791Z,66.63
2023-01-03T05:41:02.581Z,67.78
2023-01-03T05:43:29.148Z,66.88
2023-01-03T05:45:55.819Z,65.63
2023-01-03T05:48:23.007Z,64.25
2023-01-03T05:50:51.030Z,62.08
2023-01-03T05:53:17.975Z,61.67
2023-01-03T05:55:44.691Z,59.60
2023-01-03T05:58:12.820Z,57.97
2023-01-03T06:00:40.014Z,54.45
2023-01-03T06:03:07.489Z,48.80
2023-01-03T06:05:34.129Z,51.05
2023-01-03T06:08:02.439Z,50.00
2023-01-03T06:10:29.293Z,48.40
2023-01-03T06:12:56.709Z,48.70
2023-01-03T06:15:23.401Z,47.50
2023-01-03T06:17:57.866Z,44.72
2023-01-03T06:20:29.079Z,45.30
2023-01-03T06:22:57.421Z,42.47
2023-01-03T06:25:24.634Z,43.33
2023-01-03T06:27:51.230Z,39.55
2023-01-03T06:30:17.815Z,37.67
2023-01-03T06:32:44.607Z,36.55
2023-01-03T06:35:11.703Z,37.53
2023-01-03T06:37:38.621Z,37.38
2023-01-03T06:40:06.193Z,43.22
2023-01-03T06:42:40.163Z,42.90
2023-01-03T06:45:25.972Z,49.95
2023-01-03T06:48:11.365Z,53.50
2023-01-03T06:51:01.644Z,55.20
2023-01-03T06:53:35.051Z,58.33
2023-01-03T06:56:01.941Z,61.03
2023-01-03T06:58:29.048Z,63.70
2023-01-03T07:00:57.695Z,64.93
2023-01-03T07:03:24.541Z,68.28
2023-01-03T07:05:51.564Z,69.15
2023-01-03T07:08:18.243Z,69.07
2023-01-03T07:10:44.825Z,80.28
2023-01-03T07:13:29.865Z,91.53
2023-01-03T07:18:23.032Z,80.43
2023-01-03T07:20:49.730Z,84.15
2023-01-03T07:23:16.361Z,98.57
2023-01-03T07:25:43.203Z,106.53
2023-01-03T07:28:11.939Z,106.88
2023-01-03T07:30:43.670Z,118.22
2023-01-03T07:33:12.391Z,120.85
2023-01-03T07:35:39.116Z,121.65
2023-01-03T07:38:06.325Z,124.47
2023-01-03T07:40:33.191Z,124.10
2023-01-03T07:43:18.249Z,115.15
2023-01-03T07:48:12.582Z,96.95
2023-01-03T07:50:39.816Z,113.60
2023-01-03T07:53:08.453Z,105.07
2023-01-03T07:55:36.994Z,124.90
2023-01-03T07:58:03.905Z,116.15
2023-01-03T08:00:30.955Z,119.18
2023-01-03T08:02:57.656Z,106.60
2023-01-03T08:05:25.030Z,111.43
2023-01-03T08:07:53.125Z,104.57
2023-01-03T08:10:39.639Z,137.25
2023-01-03T08:13:19.014Z,99.65
2023-01-03T08:15:49.588Z,95.70
2023-01-03T08:18:19.653Z,109.25
2023-01-03T08:20:47.399Z,92.22
2023-01-03T08:23:14.184Z,100.00
2023-01-03T08:25:41.088Z,90.25
2023-01-03T08:28:09.608Z,92.20
2023-01-03T08:30:49.720Z,85.32
2023-01-03T08:33:18.585Z,83.22
2023-01-03T08:35:51.057Z,89.22
2023-01-03T08:38:22.631Z,81.32
2023-01-03T08:40:49.284Z,81.60
2023-01-03T08:43:16.429Z,79.50
2023-01-03T08:45:43.150Z,77.75
2023-01-03T08:48:11.141Z,80.28
2023-01-03T08:50:38.069Z,82.43
2023-01-03T08:53:05.866Z,86.93
2023-01-03T08:55:33.713Z,80.85
2023-01-03T08:58:00.460Z,81.22
2023-01-03T09:00:28.659Z,86.05
2023-01-03T09:03:00.132Z,85.70
2023-01-03T09:05:28.823Z,92.38
2023-01-03T09:07:56.130Z,95.75
2023-01-03T09:10:23.179Z,101.57
2023-01-03T09:12:50.113Z,106.60
2023-01-03T09:15:16.816Z,110.43
2023-01-03T09:17:45.210Z,118.70
2023-01-03T09:20:12.639Z,128.93
2023-01-03T09:22:39.226Z,140.15
2023-01-03T09:25:06.531Z,149.38
2023-01-03T09:27:33.063Z,158.10
2023-01-03T09:29:59.873Z,174.43
2023-01-03T09:32:26.517Z,187.90
2023-01-03T09:34:53.136Z,197.00
2023-01-03T09:37:19.734Z,216.73
2023-01-03T09:39:46.311Z,217.05
2023-01-03T09:42:40.345Z,228.35
2023-01-03T09:45:11.576Z,228.60
2023-01-03T09:47:39.555Z,224.15
2023-01-03T09:50:29.632Z,181.88
2023-01-03T09:53:16.830Z,190.00
2023-01-03T09:56:12.571Z,336.15
2023-01-03T09:58:58.451Z,293.13
2023-01-03T10:01:57.367Z,158.88
2023-01-03T10:05:01.848Z,141.68
2023-01-03T10:07:56.202Z,140.73
2023-01-03T10:10:46.979Z,85.00
2023-01-03T10:13:32.055Z,122.00
2023-01-03T10:16:17.829Z,100.00
2023-01-03T10:19:03.244Z,106.38
2023-01-03T10:21:45.550Z,132.13
2023-01-03T10:24:29.454Z,129.63
2023-01-03T10:27:15.398Z,124.40
2023-01-03T10:29:44.161Z,52.08
2023-01-03T10:32:35.169Z,44.85
2023-01-03T10:35:04.675Z,42.58
2023-01-03T10:37:31.267Z,50.97
2023-01-03T10:40:04.905Z,45.00
2023-01-03T10:42:35.313Z,58.70
2023-01-03T10:45:05.466Z,64.15
2023-01-03T10:47:32.204Z,54.50
2023-01-03T10:50:03.181Z,50.90
2023-01-03T10:52:34.425Z,56.92
2023-01-03T10:55:06.008Z,62.42
2023-01-03T10:57:55.536Z,37.05
2023-01-03T11:00:31.735Z,29.90
2023-01-03T11:03:16.513Z,35.85
2023-01-03T11:05:49.074Z,25.52
2023-01-03T11:08:35.177Z,27.17
2023-01-03T11:11:01.862Z,25.52
2023-01-03T11:13:38.516Z,32.22
2023-01-03T11:16:15.820Z,29.50
2023-01-03T11:18:43.871Z,32.08
2023-01-03T11:21:23.664Z,29.55
2023-01-03T11:24:16.393Z,35.05
2023-01-03T11:26:45.958Z,33.17
2023-01-03T11:29:39.802Z,37.15
2023-01-03T11:32:25.294Z,34.75
2023-01-03T11:35:22.751Z,32.83
2023-01-03T11:38:18.783Z,36.10
2023-01-03T11:41:00.277Z,33.83
2023-01-03T11:43:35.791Z,34.17
2023-01-03T11:46:06.439Z,34.20
2023-01-03T11:49:03.385Z,33.10
2023-01-03T11:51:35.952Z,35.60
2023-01-03T11:54:07.276Z,40.47
2023-01-03T11:56:44.770Z,42.88
2023-01-03T11:59:30.161Z,50.83
2023-01-03T12:02:30.780Z,47.53
2023-01-03T12:05:00.444Z,43.03
2023-01-03T12:07:48.595Z,36.95
2023-01-03T12:10:49.432Z,30.33
2023-01-03T12:13:39.289Z,28.30
2023-01-03T12:16:29.141Z,26.90
2023-01-03T12:19:05.652Z,24.80
2023-01-03T12:21:48.254Z,23.65
2023-01-03T12:24:31.970Z,24.00
2023-01-03T12:27:10.571Z,26.48
2023-01-03T12:29:51.200Z,27.58
2023-01-03T12:32:49.427Z,31.73
2023-01-03T12:35:36.997Z,37.20
2023-01-03T12:38:06.271Z,36.30
2023-01-03T12:40:39.596Z,40.90
2023-01-03T12:43:08.902Z,44.10
2023-01-03T12:45:38.903Z,46.83
2023-01-03T12:48:11.245Z,48.63
2023-01-03T12:50:47.597Z,51.13
2023-01-03T12:53:52.987Z,52.33
2023-01-03T12:56:42.598Z,55.42
2023-01-03T12:59:36.909Z,60.95
2023-01-03T13:02:38.930Z,60.55
2023-01-03T13:05:14.698Z,57.90
2023-01-03T13:07:48.058Z,60.38
2023-01-03T13:10:19.107Z,55.58
2023-01-03T13:12:54.479Z,56.83
2023-01-03T13:15:36.560Z,59.40
2023-01-03T13:18:23.601Z,59.05
2023-01-03T13:20:54.188Z,55.25
2023-01-03T13:24:04.709Z,59.30
2023-01-03T13:26:31.549Z,53.45
2023-01-03T13:29:39.880Z,53.00
2023-01-03T13:32:20.270Z,47.03
2023-01-03T13:34:56.205Z,44.33
2023-01-03T13:37:43.378Z,43.70
2023-01-03T13:40:18.573Z,39.92
2023-01-03T13:42:45.661Z,40.45
2023-01-03T13:45:14.965Z,39.95
2023-01-03T13:47:50.392Z,43.10
2023-01-03T13:50:29.299Z,44.58
2023-01-03T13:52:57.367Z,37.05
2023-01-03T13:55:54.307Z,36.97
2023-01-03T13:58:40.296Z,35.30
2023-01-03T14:01:34.812Z,33.17
2023-01-03T14:04:27.756Z,31.42
2023-01-03T14:07:19.500Z,32.00
2023-01-03T14:09:57.912Z,32.10
2023-01-03T14:12:50.549Z,32.33
2023-01-03T14:15:26.495Z,36.42
2023-01-03T14:18:00.750Z,42.90
2023-01-03T14:20:33.059Z,45.30
2023-01-03T14:23:31.819Z,54.70
2023-01-03T14:25:54.592Z,57.85
2023-01-03T14:28:33.852Z,68.53
2023-01-03T14:31:05.483Z,77.63
2023-01-03T14:33:59.578Z,82.80
2023-01-03T14:36:26.786Z,80.80
2023-01-03T14:38:58.983Z,80.72
2023-01-03T14:41:31.562Z,82.50
2023-01-03T14:44:07.483Z,80.40
2023-01-03T14:46:36.232Z,77.60
2023-01-03T14:49:07.214Z,82.03
2023-01-03T14:51:36.581Z,81.90
2023-01-03T14:54:05.073Z,78.82
2023-01-03T14:56:32.473Z,77.95
2023-01-03T14:59:00.892Z,77.53
2023-01-03T15:01:29.067Z,77.47
2023-01-03T15:03:56.249Z,75.70
2023-01-03T15:06:28.681Z,67.35
2023-01-03T15:09:00.796Z,65.10
2023-01-03T15:11:56.254Z,65.38
2023-01-03T15:14:26.132Z,59.88
2023-01-03T15:17:01.638Z,58.45
2023-01-03T15:19:30.583Z,60.25
2023-01-03T15:22:25.729Z,59.40
2023-01-03T15:25:04.717Z,57.35
2023-01-03T15:27:38.195Z,58.13
2023-01-03T15:30:22.417Z,57.97
2023-01-03T15:33:02.681Z,57.80
2023-01-03T15:35:40.867Z,55.10
2023-01-03T15:38:28.495Z,55.05
2023-01-03T15:40:55.215Z,51.35
2023-01-03T15:43:29.999Z,53.63
2023-01-03T15:46:04.104Z,54.40
2023-01-03T15:48:36.770Z,51.88
2023-01-03T15:51:05.145Z,50.58
2023-01-03T15:53:43.241Z,52.17
2023-01-03T15:56:18.992Z,49.25
2023-01-03T16:01:13.866Z,50.90
2023-01-03T16:03:40.952Z,49.47
2023-01-03T16:06:07.607Z,48.78
2023-01-03T16:08:37.659Z,49.85
2023-01-03T16:11:10.731Z,53.13
2023-01-03T16:13:42.369Z,52.17
2023-01-03T16:16:11.091Z,54.28
2023-01-03T16:18:42.378Z,55.33
2023-01-03T16:21:09.094Z,55.35
2023-01-03T16:23:35.729Z,54.13
2023-01-03T16:26:02.548Z,56.80
2023-01-03T16:28:29.493Z,57.70
2023-01-03T16:31:19.132Z,56.65
2023-01-03T16:33:47.671Z,60.47
2023-01-03T16:36:30.258Z,56.72
2023-01-03T16:38:57.066Z,53.88
2023-01-03T16:41:23.844Z,53.55
2023-01-03T16:43:50.503Z,51.53
2023-01-03T16:46:21.128Z,48.42
2023-01-03T16:48:52.862Z,47.55
2023-01-03T16:51:24.822Z,47.05
2023-01-03T16:53:52.890Z,47.88
2023-01-03T16:56:19.595Z,46.20
2023-01-03T16:58:46.218Z,45.75
2023-01-03T17:01:13.794Z,46.72
2023-01-03T17:03:42.199Z,46.00
2023-01-03T17:06:38.006Z,45.50
2023-01-03T17:09:21.420Z,45.13
2023-01-03T17:11:48.445Z,44.38
2023-01-03T17:14:21.690Z,45.53
2023-01-03T17:16:49.437Z,47.10
2023-01-03T17:20:19.204Z,46.05
2023-01-03T17:22:23.247Z,46.45
2023-01-03T17:24:51.788Z,47.22
2023-01-03T17:27:32.059Z,46.53
2023-01-03T17:30:02.742Z,47.92
2023-01-03T17:32:30.166Z,48.17
2023-01-03T17:34:56.757Z,47.53
2023-01-03T17:37:23.540Z,47.88
2023-01-03T17:39:55.970Z,46.35
2023-01-03T17:42:23.900Z,45.47
2023-01-03T17:45:09.874Z,47.28
2023-01-03T17:48:00.476Z,45.10
2023-01-03T17:50:29.935Z,45.20
2023-01-03T17:52:58.580Z,47.28
2023-01-03T17:55:29.138Z,49.30
2023-01-03T17:57:56.836Z,46.50
2023-01-03T18:00:27.102Z,47.40
2023-01-03T18:02:54.696Z,47.40
2023-01-03T18:05:27.877Z,45.38
2023-01-03T18:08:00.136Z,43.78
2023-01-03T18:10:46.851Z,46.00
2023-01-03T18:13:25.148Z,45.50
2023-01-03T18:15:52.496Z,48.15
2023-01-03T18:18:22.270Z,47.92
2023-01-03T18:20:49.496Z,49.13
2023-01-03T18:23:31.750Z,49.40
2023-01-03T18:26:02.009Z,51.65
2023-01-03T18:28:29.515Z,50.65
2023-01-03T18:30:57.042Z,52.47
2023-01-03T18:33:24.110Z,50.58
2023-01-03T18:35:52.411Z,47.08
2023-01-03T18:38:22.219Z,52.58
2023-01-03T18:40:48.824Z,52.45
2023-01-03T18:43:17.919Z,51.33
2023-01-03T18:45:44.708Z,56.20
2023-01-03T18:48:20.062Z,52.55
2023-01-03T18:50:55.623Z,55.78
2023-01-03T18:53:28.425Z,56.42
2023-01-03T18:55:55.164Z,61.20
2023-01-03T18:58:35.440Z,62.38
2023-01-03T19:01:03.184Z,68.05
2023-01-03T19:03:32.247Z,74.07
2023-01-03T19:06:00.903Z,78.43
2023-01-03T19:08:31.947Z,80.40
2023-01-03T19:11:08.202Z,80.32
2023-01-03T19:13:50.393Z,82.10
2023-01-03T19:16:29.838Z,91.40
2023-01-03T19:18:57.213Z,94.85
2023-01-03T19:21:26.210Z,98.47
2023-01-03T19:24:04.258Z,99.40
2023-01-03T19:26:43.706Z,97.15
2023-01-03T19:29:36.569Z,99.93
2023-01-03T19:32:16.270Z,110.20
2023-01-03T19:34:42.867Z,110.97
2023-01-03T19:37:10.123Z,119.03
2023-01-03T19:39:37.881Z,124.40
2023-01-03T19:42:25.284Z,123.95
2023-01-03T19:44:53.240Z,138.40
2023-01-03T19:47:20.758Z,144.93
2023-01-03T19:49:48.179Z,142.98
2023-01-03T19:52:16.546Z,136.13
2023-01-03T19:54:43.739Z,150.50
2023-01-03T19:57:21.147Z,149.30
2023-01-03T19:59:53.462Z,148.48
2023-01-03T20:02:40.939Z,150.02
2023-01-03T20:05:34.991Z,146.55
2023-01-03T20:08:11.580Z,148.60
2023-01-03T20:10:41.104Z,151.38
2023-01-03T20:13:16.179Z,148.50
2023-01-03T20:15:44.278Z,151.82
2023-01-03T20:18:30.147Z,152.43
2023-01-03T20:21:00.123Z,148.73
2023-01-03T20:23:32.997Z,146.70
2023-01-03T20:25:59.835Z,157.77
2023-01-03T20:28:31.997Z,152.75
2023-01-03T20:31:00.530Z,147.90
2023-01-03T20:33:28.062Z,147.70
2023-01-03T20:36:17.629Z,147.20
2023-01-03T20:38:48.319Z,144.75
2023-01-03T20:41:17.585Z,147.63
2023-01-03T20:43:45.098Z,152.05
2023-01-03T20:46:20.114Z,147.13
2023-01-03T20:48:55.295Z,143.95
2023-01-03T20:51:22.262Z,141.10
2023-01-03T20:53:54.119Z,142.48
2023-01-03T20:56:21.300Z,141.43
2023-01-03T20:58:48.529Z,145.23
2023-01-03T21:01:15.175Z,147.40
2023-01-03T21:03:41.942Z,143.30
2023-01-03T21:06:22.798Z,146.77
2023-01-03T21:08:55.199Z,143.60
2023-01-03T21:11:23.413Z,144.20
2023-01-03T21:13:50.218Z,150.50
2023-01-03T21:16:29.551Z,147.05
2023-01-03T21:19:01.527Z,142.75
2023-01-03T21:21:30.293Z,141.65
2023-01-03T21:23:56.922Z,139.25
2023-01-03T21:26:23.612Z,144.35
2023-01-03T21:28:50.185Z,143.02
2023-01-03T21:31:22.007Z,139.13
2023-01-03T21:33:49.164Z,143.60
2023-01-03T21:36:24.473Z,143.63
2023-01-03T21:38:51.919Z,145.35
2023-01-03T21:41:24.361Z,142.40
2023-01-03T21:43:54.718Z,139.95
2023-01-03T21:46:23.797Z,139.10
2023-01-03T21:48:50.785Z,139.65
2023-01-03T21:51:25.765Z,139.10
2023-01-03T21:53:59.975Z,136.85
2023-01-03T21:56:26.540Z,136.63
2023-01-03T21:58:53.172Z,134.65
2023-01-03T22:01:24.442Z,136.32
2023-01-03T22:04:10.682Z,135.35
2023-01-03T22:06:37.911Z,131.30
2023-01-03T22:09:06.245Z,131.27
2023-01-03T22:11:33.019Z,130.93
2023-01-03T22:14:00.842Z,127.40
2023-01-03T22:16:27.591Z,121.35
2023-01-03T22:18:54.215Z,112.45
2023-01-03T22:21:21.345Z,102.85
2023-01-03T22:23:47.965Z,97.55
2023-01-03T22:26:16.266Z,95.05
2023-01-03T22:28:47.036Z,89.07
2023-01-03T22:31:18.210Z,84.47
2023-01-03T22:33:47.114Z,82.57
2023-01-03T22:36:14.495Z,82.47
2023-01-03T22:38:42.108Z,78.68
2023-01-03T22:41:10.128Z,81.80
2023-01-03T22:43:37.658Z,79.45
2023-01-03T22:46:13.401Z,76.18
2023-01-03T22:48:40.387Z,69.55
2023-01-03T22:51:10.489Z,69.22
2023-01-03T22:53:40.136Z,69.28
2023-01-03T22:56:09.193Z,70.22
2023-01-03T22:58:40.961Z,71.20
2023-01-03T23:01:15.701Z,74.18
2023-01-03T23:03:43.350Z,67.97
2023-01-03T23:06:17.908Z,65.72
2023-01-03T23:08:45.520Z,64.65
2023-01-03T23:11:34.919Z,63.08
2023-01-03T23:14:07.579Z,59.28
2023-01-03T23:16:34.471Z,61.25
2023-01-03T23:19:07.159Z,58.72
2023-01-03T23:21:34.294Z,58.63
2023-01-03T23:24:01.343Z,57.55
2023-01-03T23:26:27.976Z,57.08
2023-01-03T23:28:59.435Z,56.67
2023-01-03T23:31:27.661Z,56.30
2023-01-03T23:33:59.418Z,55.20
2023-01-03T23:36:26.930Z,55.78
2023-01-03T23:38:54.269Z,53.60
2023-01-03T23:41:22.674Z,53.80
2023-01-03T23:43:50.123Z,52.80
2023-01-03T23:46:20.317Z,52.25
2023-01-03T23:48:47.463Z,50.72
2023-01-03T23:51:15.086Z,51.58
2023-01-03T23:53:43.311Z,49.58
2023-01-03T23:56:13.566Z,49.10
2023-01-03T23:58:40.493Z,50.17
